sensor_id;sensor_type;location;lat;lon;timestamp;P1;durP1;ratioP1;P2;durP2;ratioP2
7156;SDS011;3620;49.862;8.758;2022-07-18T00:01:48;0.50;;;0.50;;
7156;SDS011;3620;49.862;8.758;2022-07-18T00:04:15;0.50;;;0.50;;
7156;SDS011;3620;49.862;8.758;2022-07-18T00:06:42;0.60;;;0.60;;
7156;SDS011;3620;49.862;8.758;2022-07-18T00:09:09;0.60;;;0.60;;
7156;SDS011;3620;49.862;8.758;2022-07-18T00:11:35;0.50;;;0.50;;
7156;SDS011;3620;49.862;8.758;2022-07-18T00:14:02;0.50;;;0.50;;
7156;SDS011;3620;49.862;8.758;2022-07-18T00:16:29;0.50;;;0.50;;
7156;SDS011;3620;49.862;8.758;2022-07-18T00:18:57;0.60;;;0.60;;
7156;SDS011;3620;49.862;8.758;2022-07-18T00:21:25;0.60;;;0.60;;
7156;SDS011;3620;49.862;8.758;2022-07-18T00:23:52;0.60;;;0.60;;
7156;SDS011;3620;49.862;8.758;2022-07-18T00:26:19;0.50;;;0.50;;
7156;SDS011;3620;49.862;8.758;2022-07-18T00:28:45;0.60;;;0.60;;
7156;SDS011;3620;49.862;8.758;2022-07-18T00:31:12;0.60;;;0.60;;
7156;SDS011;3620;49.862;8.758;2022-07-18T00:33:39;0.50;;;0.50;;
7156;SDS011;3620;49.862;8.758;2022-07-18T00:36:07;0.60;;;0.60;;
7156;SDS011;3620;49.862;8.758;2022-07-18T00:38:34;0.60;;;0.60;;
7156;SDS011;3620;49.862;8.758;2022-07-18T00:41:01;0.50;;;0.50;;
7156;SDS011;3620;49.862;8.758;2022-07-18T00:43:27;0.60;;;0.60;;
7156;SDS011;3620;49.862;8.758;2022-07-18T00:45:54;0.53;;;0.53;;
7156;SDS011;3620;49.862;8.758;2022-07-18T00:48:21;0.50;;;0.50;;
7156;SDS011;3620;49.862;8.758;2022-07-18T00:50:48;0.60;;;0.60;;
7156;SDS011;3620;49.862;8.758;2022-07-18T00:53:16;0.60;;;0.60;;
7156;SDS011;3620;49.862;8.758;2022-07-18T00:55:44;0.53;;;0.53;;
7156;SDS011;3620;49.862;8.758;2022-07-18T00:58:11;0.60;;;0.60;;
7156;SDS011;3620;49.862;8.758;2022-07-18T01:00:39;0.60;;;0.60;;
7156;SDS011;3620;49.862;8.758;2022-07-18T01:03:23;0.60;;;0.60;;
7156;SDS011;3620;49.862;8.758;2022-07-18T01:05:50;0.60;;;0.60;;
7156;SDS011;3620;49.862;8.758;2022-07-18T01:08:18;0.60;;;0.60;;
7156;SDS011;3620;49.862;8.758;2022-07-18T01:10:44;0.60;;;0.60;;
7156;SDS011;3620;49.862;8.758;2022-07-18T01:13:11;0.67;;;0.67;;
7156;SDS011;3620;49.862;8.758;2022-07-18T01:15:38;0.70;;;0.70;;
7156;SDS011;3620;49.862;8.758;2022-07-18T01:18:05;0.70;;;0.70;;
7156;SDS011;3620;49.862;8.758;2022-07-18T01:20:33;0.63;;;0.63;;
7156;SDS011;3620;49.862;8.758;2022-07-18T01:23:00;0.70;;;0.70;;
7156;SDS011;3620;49.862;8.758;2022-07-18T01:25:27;0.70;;;0.70;;
7156;SDS011;3620;49.862;8.758;2022-07-18T01:27:54;0.70;;;0.70;;
7156;SDS011;3620;49.862;8.758;2022-07-18T01:30:20;0.70;;;0.70;;
7156;SDS011;3620;49.862;8.758;2022-07-18T01:32:48;0.60;;;0.60;;
7156;SDS011;3620;49.862;8.758;2022-07-18T01:35:21;0.70;;;0.70;;
7156;SDS011;3620;49.862;8.758;2022-07-18T01:37:51;0.70;;;0.70;;
7156;SDS011;3620;49.862;8.758;2022-07-18T01:40:18;0.67;;;0.67;;
7156;SDS011;3620;49.862;8.758;2022-07-18T01:42:44;0.60;;;0.60;;
7156;SDS011;3620;49.862;8.758;2022-07-18T01:45:11;0.60;;;0.60;;
7156;SDS011;3620;49.862;8.758;2022-07-18T01:47:38;0.60;;;0.60;;
7156;SDS011;3620;49.862;8.758;2022-07-18T01:50:05;0.70;;;0.70;;
7156;SDS011;3620;49.862;8.758;2022-07-18T01:52:32;0.70;;;0.70;;
7156;SDS011;3620;49.862;8.758;2022-07-18T01:55:01;0.60;;;0.60;;
7156;SDS011;3620;49.862;8.758;2022-07-18T01:57:27;0.70;;;0.70;;
7156;SDS011;3620;49.862;8.758;2022-07-18T01:59:54;0.60;;;0.60;;
7156;SDS011;3620;49.862;8.758;2022-07-18T02:02:21;0.60;;;0.60;;
7156;SDS011;3620;49.862;8.758;2022-07-18T02:04:47;0.60;;;0.60;;
7156;SDS011;3620;49.862;8.758;2022-07-18T02:07:26;0.70;;;0.70;;
7156;SDS011;3620;49.862;8.758;2022-07-18T02:09:53;0.70;;;0.70;;
7156;SDS011;3620;49.862;8.758;2022-07-18T02:12:21;0.60;;;0.60;;
7156;SDS011;3620;49.862;8.758;2022-07-18T02:14:49;0.70;;;0.70;;
7156;SDS011;3620;49.862;8.758;2022-07-18T02:17:16;0.70;;;0.70;;
7156;SDS011;3620;49.862;8.758;2022-07-18T02:19:44;0.70;;;0.70;;
7156;SDS011;3620;49.862;8.758;2022-07-18T02:22:10;0.70;;;0.70;;
7156;SDS011;3620;49.862;8.758;2022-07-18T02:24:37;0.67;;;0.67;;
7156;SDS011;3620;49.862;8.758;2022-07-18T02:27:04;0.70;;;0.70;;
7156;SDS011;3620;49.862;8.758;2022-07-18T02:29:32;0.70;;;0.70;;
7156;SDS011;3620;49.862;8.758;2022-07-18T02:31:59;0.80;;;0.80;;
7156;SDS011;3620;49.862;8.758;2022-07-18T02:34:25;0.70;;;0.70;;
7156;SDS011;3620;49.862;8.758;2022-07-18T02:36:52;0.60;;;0.60;;
7156;SDS011;3620;49.862;8.758;2022-07-18T02:39:19;0.60;;;0.60;;
7156;SDS011;3620;49.862;8.758;2022-07-18T02:41:46;0.70;;;0.70;;
7156;SDS011;3620;49.862;8.758;2022-07-18T02:44:13;0.70;;;0.70;;
7156;SDS011;3620;49.862;8.758;2022-07-18T02:46:41;0.77;;;0.77;;
7156;SDS011;3620;49.862;8.758;2022-07-18T02:49:08;0.70;;;0.70;;
7156;SDS011;3620;49.862;8.758;2022-07-18T02:51:35;0.70;;;0.70;;
7156;SDS011;3620;49.862;8.758;2022-07-18T02:54:02;0.67;;;0.67;;
7156;SDS011;3620;49.862;8.758;2022-07-18T02:56:29;0.60;;;0.60;;
7156;SDS011;3620;49.862;8.758;2022-07-18T02:58:55;0.60;;;0.60;;
7156;SDS011;3620;49.862;8.758;2022-07-18T03:01:22;0.67;;;0.67;;
7156;SDS011;3620;49.862;8.758;2022-07-18T03:03:50;0.67;;;0.67;;
7156;SDS011;3620;49.862;8.758;2022-07-18T03:06:17;0.60;;;0.60;;
7156;SDS011;3620;49.862;8.758;2022-07-18T03:08:44;0.70;;;0.70;;
7156;SDS011;3620;49.862;8.758;2022-07-18T03:11:10;0.70;;;0.70;;
7156;SDS011;3620;49.862;8.758;2022-07-18T03:13:37;0.70;;;0.70;;
7156;SDS011;3620;49.862;8.758;2022-07-18T03:16:04;0.70;;;0.70;;
7156;SDS011;3620;49.862;8.758;2022-07-18T03:18:31;0.70;;;0.70;;
7156;SDS011;3620;49.862;8.758;2022-07-18T03:20:59;0.60;;;0.60;;
7156;SDS011;3620;49.862;8.758;2022-07-18T03:23:25;0.70;;;0.70;;
7156;SDS011;3620;49.862;8.758;2022-07-18T03:25:52;0.70;;;0.70;;
7156;SDS011;3620;49.862;8.758;2022-07-18T03:28:19;0.70;;;0.70;;
7156;SDS011;3620;49.862;8.758;2022-07-18T03:30:45;0.60;;;0.60;;
7156;SDS011;3620;49.862;8.758;2022-07-18T03:33:12;0.70;;;0.70;;
7156;SDS011;3620;49.862;8.758;2022-07-18T03:35:39;0.70;;;0.70;;
7156;SDS011;3620;49.862;8.758;2022-07-18T03:38:07;0.67;;;0.67;;
7156;SDS011;3620;49.862;8.758;2022-07-18T03:40:34;0.70;;;0.70;;
7156;SDS011;3620;49.862;8.758;2022-07-18T03:43:01;0.70;;;0.70;;
7156;SDS011;3620;49.862;8.758;2022-07-18T03:45:27;0.70;;;0.70;;
7156;SDS011;3620;49.862;8.758;2022-07-18T03:47:54;0.70;;;0.70;;
7156;SDS011;3620;49.862;8.758;2022-07-18T03:50:21;0.80;;;0.80;;
7156;SDS011;3620;49.862;8.758;2022-07-18T03:52:48;0.60;;;0.60;;
7156;SDS011;3620;49.862;8.758;2022-07-18T03:55:16;0.77;;;0.77;;
7156;SDS011;3620;49.862;8.758;2022-07-18T03:57:43;0.60;;;0.60;;
7156;SDS011;3620;49.862;8.758;2022-07-18T04:02:45;0.80;;;0.80;;
7156;SDS011;3620;49.862;8.758;2022-07-18T04:05:14;0.70;;;0.70;;
7156;SDS011;3620;49.862;8.758;2022-07-18T04:07:41;0.70;;;0.70;;
7156;SDS011;3620;49.862;8.758;2022-07-18T04:10:09;0.70;;;0.70;;
7156;SDS011;3620;49.862;8.758;2022-07-18T04:12:45;0.60;;;0.60;;
7156;SDS011;3620;49.862;8.758;2022-07-18T04:15:12;0.60;;;0.60;;
7156;SDS011;3620;49.862;8.758;2022-07-18T04:17:40;0.60;;;0.60;;
7156;SDS011;3620;49.862;8.758;2022-07-18T04:20:07;0.73;;;0.73;;
7156;SDS011;3620;49.862;8.758;2022-07-18T04:22:43;0.70;;;0.70;;
7156;SDS011;3620;49.862;8.758;2022-07-18T04:25:11;0.70;;;0.70;;
7156;SDS011;3620;49.862;8.758;2022-07-18T04:27:38;0.80;;;0.80;;
7156;SDS011;3620;49.862;8.758;2022-07-18T04:30:07;0.70;;;0.70;;
7156;SDS011;3620;49.862;8.758;2022-07-18T04:32:35;0.70;;;0.70;;
7156;SDS011;3620;49.862;8.758;2022-07-18T04:35:01;0.70;;;0.70;;
7156;SDS011;3620;49.862;8.758;2022-07-18T04:37:29;0.70;;;0.70;;
7156;SDS011;3620;49.862;8.758;2022-07-18T04:39:57;0.70;;;0.70;;
7156;SDS011;3620;49.862;8.758;2022-07-18T04:42:24;0.70;;;0.70;;
7156;SDS011;3620;49.862;8.758;2022-07-18T04:44:51;0.80;;;0.80;;
7156;SDS011;3620;49.862;8.758;2022-07-18T04:47:19;0.60;;;0.60;;
7156;SDS011;3620;49.862;8.758;2022-07-18T04:49:46;0.60;;;0.60;;
7156;SDS011;3620;49.862;8.758;2022-07-18T04:52:13;0.80;;;0.80;;
7156;SDS011;3620;49.862;8.758;2022-07-18T04:54:40;0.70;;;0.70;;
7156;SDS011;3620;49.862;8.758;2022-07-18T04:57:06;0.70;;;0.70;;
7156;SDS011;3620;49.862;8.758;2022-07-18T04:59:34;0.70;;;0.70;;
7156;SDS011;3620;49.862;8.758;2022-07-18T05:02:00;0.60;;;0.60;;
7156;SDS011;3620;49.862;8.758;2022-07-18T05:04:29;0.60;;;0.60;;
7156;SDS011;3620;49.862;8.758;2022-07-18T05:06:55;0.70;;;0.70;;
7156;SDS011;3620;49.862;8.758;2022-07-18T05:09:22;0.70;;;0.70;;
7156;SDS011;3620;49.862;8.758;2022-07-18T05:11:49;0.70;;;0.70;;
7156;SDS011;3620;49.862;8.758;2022-07-18T05:14:16;0.63;;;0.63;;
7156;SDS011;3620;49.862;8.758;2022-07-18T05:16:42;0.70;;;0.70;;
7156;SDS011;3620;49.862;8.758;2022-07-18T05:19:09;0.70;;;0.70;;
7156;SDS011;3620;49.862;8.758;2022-07-18T05:21:37;0.70;;;0.70;;
7156;SDS011;3620;49.862;8.758;2022-07-18T05:24:04;0.70;;;0.70;;
7156;SDS011;3620;49.862;8.758;2022-07-18T05:26:32;0.50;;;0.50;;
7156;SDS011;3620;49.862;8.758;2022-07-18T05:28:59;0.60;;;0.60;;
7156;SDS011;3620;49.862;8.758;2022-07-18T05:31:26;0.70;;;0.70;;
7156;SDS011;3620;49.862;8.758;2022-07-18T05:33:53;0.70;;;0.70;;
7156;SDS011;3620;49.862;8.758;2022-07-18T05:36:19;0.63;;;0.63;;
7156;SDS011;3620;49.862;8.758;2022-07-18T05:38:48;0.77;;;0.77;;
7156;SDS011;3620;49.862;8.758;2022-07-18T05:41:14;0.70;;;0.70;;
7156;SDS011;3620;49.862;8.758;2022-07-18T05:43:41;0.70;;;0.70;;
7156;SDS011;3620;49.862;8.758;2022-07-18T05:46:08;0.70;;;0.70;;
7156;SDS011;3620;49.862;8.758;2022-07-18T05:48:35;0.70;;;0.70;;
7156;SDS011;3620;49.862;8.758;2022-07-18T05:51:02;0.70;;;0.70;;
7156;SDS011;3620;49.862;8.758;2022-07-18T05:53:29;0.70;;;0.70;;
7156;SDS011;3620;49.862;8.758;2022-07-18T05:55:58;0.70;;;0.70;;
7156;SDS011;3620;49.862;8.758;2022-07-18T05:58:25;0.70;;;0.70;;
7156;SDS011;3620;49.862;8.758;2022-07-18T06:00:51;0.70;;;0.70;;
7156;SDS011;3620;49.862;8.758;2022-07-18T06:03:19;0.70;;;0.70;;
7156;SDS011;3620;49.862;8.758;2022-07-18T06:05:46;0.70;;;0.70;;
7156;SDS011;3620;49.862;8.758;2022-07-18T06:08:13;0.60;;;0.60;;
7156;SDS011;3620;49.862;8.758;2022-07-18T06:10:39;0.60;;;0.60;;
7156;SDS011;3620;49.862;8.758;2022-07-18T06:13:08;0.60;;;0.60;;
7156;SDS011;3620;49.862;8.758;2022-07-18T06:15:34;0.70;;;0.70;;
7156;SDS011;3620;49.862;8.758;2022-07-18T06:18:01;0.60;;;0.60;;
7156;SDS011;3620;49.862;8.758;2022-07-18T06:20:28;0.63;;;0.63;;
7156;SDS011;3620;49.862;8.758;2022-07-18T06:22:55;0.60;;;0.60;;
7156;SDS011;3620;49.862;8.758;2022-07-18T06:25:22;0.70;;;0.70;;
7156;SDS011;3620;49.862;8.758;2022-07-18T06:27:49;0.70;;;0.70;;
7156;SDS011;3620;49.862;8.758;2022-07-18T06:30:17;0.70;;;0.70;;
7156;SDS011;3620;49.862;8.758;2022-07-18T06:32:44;0.70;;;0.70;;
7156;SDS011;3620;49.862;8.758;2022-07-18T06:35:11;0.60;;;0.60;;
7156;SDS011;3620;49.862;8.758;2022-07-18T06:37:37;0.63;;;0.63;;
7156;SDS011;3620;49.862;8.758;2022-07-18T06:40:05;0.60;;;0.60;;
7156;SDS011;3620;49.862;8.758;2022-07-18T06:42:32;0.60;;;0.60;;
7156;SDS011;3620;49.862;8.758;2022-07-18T06:44:59;0.60;;;0.60;;
7156;SDS011;3620;49.862;8.758;2022-07-18T06:47:29;0.70;;;0.70;;
7156;SDS011;3620;49.862;8.758;2022-07-18T06:49:56;0.70;;;0.70;;
7156;SDS011;3620;49.862;8.758;2022-07-18T06:52:22;0.53;;;0.53;;
7156;SDS011;3620;49.862;8.758;2022-07-18T06:54:49;0.60;;;0.60;;
7156;SDS011;3620;49.862;8.758;2022-07-18T06:57:16;0.60;;;0.60;;
7156;SDS011;3620;49.862;8.758;2022-07-18T06:59:45;0.60;;;0.60;;
7156;SDS011;3620;49.862;8.758;2022-07-18T07:02:12;0.60;;;0.60;;
7156;SDS011;3620;49.862;8.758;2022-07-18T07:04:40;0.60;;;0.60;;
7156;SDS011;3620;49.862;8.758;2022-07-18T07:07:06;0.60;;;0.60;;
7156;SDS011;3620;49.862;8.758;2022-07-18T07:09:33;0.60;;;0.60;;
7156;SDS011;3620;49.862;8.758;2022-07-18T07:12:00;0.50;;;0.50;;
7156;SDS011;3620;49.862;8.758;2022-07-18T07:14:27;0.70;;;0.70;;
7156;SDS011;3620;49.862;8.758;2022-07-18T07:16:53;0.60;;;0.60;;
7156;SDS011;3620;49.862;8.758;2022-07-18T07:19:20;0.60;;;0.60;;
7156;SDS011;3620;49.862;8.758;2022-07-18T07:21:48;0.57;;;0.57;;
7156;SDS011;3620;49.862;8.758;2022-07-18T07:24:15;0.57;;;0.57;;
7156;SDS011;3620;49.862;8.758;2022-07-18T07:26:42;0.50;;;0.50;;
7156;SDS011;3620;49.862;8.758;2022-07-18T07:29:08;0.60;;;0.60;;
7156;SDS011;3620;49.862;8.758;2022-07-18T07:31:35;0.60;;;0.60;;
7156;SDS011;3620;49.862;8.758;2022-07-18T07:34:02;0.50;;;0.50;;
7156;SDS011;3620;49.862;8.758;2022-07-18T07:36:29;0.60;;;0.60;;
7156;SDS011;3620;49.862;8.758;2022-07-18T07:38:57;0.40;;;0.40;;
7156;SDS011;3620;49.862;8.758;2022-07-18T07:41:23;0.50;;;0.50;;
7156;SDS011;3620;49.862;8.758;2022-07-18T07:43:50;0.57;;;0.57;;
7156;SDS011;3620;49.862;8.758;2022-07-18T07:46:17;0.50;;;0.50;;
7156;SDS011;3620;49.862;8.758;2022-07-18T07:48:44;0.60;;;0.60;;
7156;SDS011;3620;49.862;8.758;2022-07-18T07:51:12;0.50;;;0.50;;
7156;SDS011;3620;49.862;8.758;2022-07-18T07:53:39;0.50;;;0.50;;
7156;SDS011;3620;49.862;8.758;2022-07-18T07:56:08;0.50;;;0.50;;
7156;SDS011;3620;49.862;8.758;2022-07-18T07:58:35;0.50;;;0.50;;
7156;SDS011;3620;49.862;8.758;2022-07-18T08:01:02;0.60;;;0.60;;
7156;SDS011;3620;49.862;8.758;2022-07-18T08:03:29;0.57;;;0.57;;
7156;SDS011;3620;49.862;8.758;2022-07-18T08:05:56;0.50;;;0.50;;
7156;SDS011;3620;49.862;8.758;2022-07-18T08:08:23;0.60;;;0.60;;
7156;SDS011;3620;49.862;8.758;2022-07-18T08:10:50;0.60;;;0.60;;
7156;SDS011;3620;49.862;8.758;2022-07-18T08:13:19;0.50;;;0.50;;
7156;SDS011;3620;49.862;8.758;2022-07-18T08:15:46;0.50;;;0.50;;
7156;SDS011;3620;49.862;8.758;2022-07-18T08:18:13;0.50;;;0.50;;
7156;SDS011;3620;49.862;8.758;2022-07-18T08:20:40;0.50;;;0.50;;
7156;SDS011;3620;49.862;8.758;2022-07-18T08:23:07;0.50;;;0.50;;
7156;SDS011;3620;49.862;8.758;2022-07-18T08:25:37;0.50;;;0.50;;
7156;SDS011;3620;49.862;8.758;2022-07-18T08:28:05;0.47;;;0.47;;
7156;SDS011;3620;49.862;8.758;2022-07-18T08:30:34;0.50;;;0.50;;
7156;SDS011;3620;49.862;8.758;2022-07-18T08:33:02;0.50;;;0.50;;
7156;SDS011;3620;49.862;8.758;2022-07-18T08:35:30;0.50;;;0.50;;
7156;SDS011;3620;49.862;8.758;2022-07-18T08:37:58;0.50;;;0.50;;
7156;SDS011;3620;49.862;8.758;2022-07-18T08:40:25;0.40;;;0.40;;
7156;SDS011;3620;49.862;8.758;2022-07-18T08:42:53;0.40;;;0.40;;
7156;SDS011;3620;49.862;8.758;2022-07-18T08:45:22;0.40;;;0.40;;
7156;SDS011;3620;49.862;8.758;2022-07-18T08:47:52;0.50;;;0.50;;
7156;SDS011;3620;49.862;8.758;2022-07-18T08:50:19;0.50;;;0.50;;
7156;SDS011;3620;49.862;8.758;2022-07-18T08:52:46;0.50;;;0.50;;
7156;SDS011;3620;49.862;8.758;2022-07-18T08:55:12;0.50;;;0.50;;
7156;SDS011;3620;49.862;8.758;2022-07-18T08:57:40;0.50;;;0.50;;
7156;SDS011;3620;49.862;8.758;2022-07-18T09:00:08;0.50;;;0.50;;
7156;SDS011;3620;49.862;8.758;2022-07-18T09:02:36;0.40;;;0.40;;
7156;SDS011;3620;49.862;8.758;2022-07-18T09:05:05;0.40;;;0.40;;
7156;SDS011;3620;49.862;8.758;2022-07-18T09:07:33;0.50;;;0.50;;
7156;SDS011;3620;49.862;8.758;2022-07-18T09:10:02;0.50;;;0.50;;
7156;SDS011;3620;49.862;8.758;2022-07-18T09:12:30;0.40;;;0.40;;
7156;SDS011;3620;49.862;8.758;2022-07-18T09:14:57;0.40;;;0.40;;
7156;SDS011;3620;49.862;8.758;2022-07-18T09:17:32;0.40;;;0.40;;
7156;SDS011;3620;49.862;8.758;2022-07-18T09:20:00;0.40;;;0.40;;
7156;SDS011;3620;49.862;8.758;2022-07-18T09:22:31;0.40;;;0.40;;
7156;SDS011;3620;49.862;8.758;2022-07-18T09:25:01;0.40;;;0.40;;
7156;SDS011;3620;49.862;8.758;2022-07-18T09:27:32;0.40;;;0.40;;
7156;SDS011;3620;49.862;8.758;2022-07-18T09:32:50;0.40;;;0.40;;
7156;SDS011;3620;49.862;8.758;2022-07-18T09:35:19;0.50;;;0.50;;
7156;SDS011;3620;49.862;8.758;2022-07-18T09:37:57;0.50;;;0.50;;
7156;SDS011;3620;49.862;8.758;2022-07-18T09:40:26;0.50;;;0.50;;
7156;SDS011;3620;49.862;8.758;2022-07-18T09:42:55;0.40;;;0.40;;
7156;SDS011;3620;49.862;8.758;2022-07-18T09:45:24;0.40;;;0.40;;
7156;SDS011;3620;49.862;8.758;2022-07-18T09:47:53;0.40;;;0.40;;
7156;SDS011;3620;49.862;8.758;2022-07-18T09:50:25;0.50;;;0.50;;
7156;SDS011;3620;49.862;8.758;2022-07-18T09:52:59;0.40;;;0.40;;
7156;SDS011;3620;49.862;8.758;2022-07-18T09:55:28;0.40;;;0.40;;
7156;SDS011;3620;49.862;8.758;2022-07-18T09:58:01;0.40;;;0.40;;
7156;SDS011;3620;49.862;8.758;2022-07-18T10:00:30;0.40;;;0.40;;
7156;SDS011;3620;49.862;8.758;2022-07-18T10:03:00;0.40;;;0.40;;
7156;SDS011;3620;49.862;8.758;2022-07-18T10:05:28;0.40;;;0.40;;
7156;SDS011;3620;49.862;8.758;2022-07-18T10:07:57;0.40;;;0.40;;
7156;SDS011;3620;49.862;8.758;2022-07-18T10:10:26;0.30;;;0.30;;
7156;SDS011;3620;49.862;8.758;2022-07-18T10:12:54;0.40;;;0.40;;
7156;SDS011;3620;49.862;8.758;2022-07-18T10:15:23;0.30;;;0.30;;
7156;SDS011;3620;49.862;8.758;2022-07-18T10:17:51;0.40;;;0.40;;
7156;SDS011;3620;49.862;8.758;2022-07-18T10:20:18;0.30;;;0.30;;
7156;SDS011;3620;49.862;8.758;2022-07-18T10:22:52;0.30;;;0.30;;
7156;SDS011;3620;49.862;8.758;2022-07-18T10:25:23;0.40;;;0.40;;
7156;SDS011;3620;49.862;8.758;2022-07-18T10:27:51;0.40;;;0.40;;
7156;SDS011;3620;49.862;8.758;2022-07-18T10:30:29;0.40;;;0.40;;
7156;SDS011;3620;49.862;8.758;2022-07-18T10:32:58;0.40;;;0.40;;
7156;SDS011;3620;49.862;8.758;2022-07-18T10:38:25;0.40;;;0.40;;
7156;SDS011;3620;49.862;8.758;2022-07-18T10:41:07;0.40;;;0.40;;
7156;SDS011;3620;49.862;8.758;2022-07-18T10:43:36;0.40;;;0.40;;
7156;SDS011;3620;49.862;8.758;2022-07-18T10:46:06;0.30;;;0.30;;
7156;SDS011;3620;49.862;8.758;2022-07-18T10:51:29;0.40;;;0.40;;
7156;SDS011;3620;49.862;8.758;2022-07-18T10:54:07;0.40;;;0.40;;
7156;SDS011;3620;49.862;8.758;2022-07-18T10:59:36;0.30;;;0.30;;
7156;SDS011;3620;49.862;8.758;2022-07-18T11:02:04;0.30;;;0.30;;
7156;SDS011;3620;49.862;8.758;2022-07-18T11:04:36;0.40;;;0.40;;
7156;SDS011;3620;49.862;8.758;2022-07-18T11:07:09;0.30;;;0.30;;
7156;SDS011;3620;49.862;8.758;2022-07-18T11:09:39;0.30;;;0.30;;
7156;SDS011;3620;49.862;8.758;2022-07-18T11:12:22;0.40;;;0.40;;
7156;SDS011;3620;49.862;8.758;2022-07-18T11:14:57;0.30;;;0.30;;
7156;SDS011;3620;49.862;8.758;2022-07-18T11:20:28;0.30;;;0.30;;
7156;SDS011;3620;49.862;8.758;2022-07-18T11:23:03;0.30;;;0.30;;
7156;SDS011;3620;49.862;8.758;2022-07-18T11:25:31;0.30;;;0.30;;
7156;SDS011;3620;49.862;8.758;2022-07-18T11:28:07;0.30;;;0.30;;
7156;SDS011;3620;49.862;8.758;2022-07-18T11:30:34;0.30;;;0.30;;
7156;SDS011;3620;49.862;8.758;2022-07-18T11:33:01;0.30;;;0.30;;
7156;SDS011;3620;49.862;8.758;2022-07-18T11:35:28;0.30;;;0.30;;
7156;SDS011;3620;49.862;8.758;2022-07-18T11:37:55;0.30;;;0.30;;
7156;SDS011;3620;49.862;8.758;2022-07-18T11:40:22;0.30;;;0.30;;
7156;SDS011;3620;49.862;8.758;2022-07-18T11:42:49;0.40;;;0.40;;
7156;SDS011;3620;49.862;8.758;2022-07-18T11:45:17;0.30;;;0.30;;
7156;SDS011;3620;49.862;8.758;2022-07-18T11:47:48;0.30;;;0.30;;
7156;SDS011;3620;49.862;8.758;2022-07-18T11:50:16;0.30;;;0.30;;
7156;SDS011;3620;49.862;8.758;2022-07-18T11:52:44;0.40;;;0.40;;
7156;SDS011;3620;49.862;8.758;2022-07-18T11:55:12;0.30;;;0.30;;
7156;SDS011;3620;49.862;8.758;2022-07-18T11:57:39;0.38;;;0.38;;
7156;SDS011;3620;49.862;8.758;2022-07-18T12:00:18;0.30;;;0.30;;
7156;SDS011;3620;49.862;8.758;2022-07-18T12:05:32;0.30;;;0.30;;
7156;SDS011;3620;49.862;8.758;2022-07-18T12:08:01;0.30;;;0.30;;
7156;SDS011;3620;49.862;8.758;2022-07-18T12:11:01;0.30;;;0.30;;
7156;SDS011;3620;49.862;8.758;2022-07-18T12:13:48;0.30;;;0.30;;
7156;SDS011;3620;49.862;8.758;2022-07-18T12:16:24;0.30;;;0.30;;
7156;SDS011;3620;49.862;8.758;2022-07-18T12:18:56;0.30;;;0.30;;
7156;SDS011;3620;49.862;8.758;2022-07-18T12:21:24;0.30;;;0.30;;
7156;SDS011;3620;49.862;8.758;2022-07-18T12:24:16;0.30;;;0.30;;
7156;SDS011;3620;49.862;8.758;2022-07-18T12:26:44;0.30;;;0.30;;
7156;SDS011;3620;49.862;8.758;2022-07-18T12:29:11;0.30;;;0.30;;
7156;SDS011;3620;49.862;8.758;2022-07-18T12:31:41;0.38;;;0.38;;
7156;SDS011;3620;49.862;8.758;2022-07-18T12:34:12;0.30;;;0.30;;
7156;SDS011;3620;49.862;8.758;2022-07-18T12:36:50;0.30;;;0.30;;
7156;SDS011;3620;49.862;8.758;2022-07-18T12:39:27;0.30;;;0.30;;
7156;SDS011;3620;49.862;8.758;2022-07-18T12:41:55;0.30;;;0.30;;
7156;SDS011;3620;49.862;8.758;2022-07-18T12:44:23;0.40;;;0.40;;
7156;SDS011;3620;49.862;8.758;2022-07-18T12:46:51;0.30;;;0.30;;
7156;SDS011;3620;49.862;8.758;2022-07-18T12:49:18;0.30;;;0.30;;
7156;SDS011;3620;49.862;8.758;2022-07-18T12:51:45;0.30;;;0.30;;
7156;SDS011;3620;49.862;8.758;2022-07-18T12:54:12;0.20;;;0.20;;
7156;SDS011;3620;49.862;8.758;2022-07-18T12:56:39;0.30;;;0.30;;
7156;SDS011;3620;49.862;8.758;2022-07-18T12:59:06;0.30;;;0.30;;
7156;SDS011;3620;49.862;8.758;2022-07-18T13:01:33;0.40;;;0.40;;
7156;SDS011;3620;49.862;8.758;2022-07-18T13:04:02;0.30;;;0.30;;
7156;SDS011;3620;49.862;8.758;2022-07-18T13:06:30;0.30;;;0.30;;
7156;SDS011;3620;49.862;8.758;2022-07-18T13:08:56;0.30;;;0.30;;
7156;SDS011;3620;49.862;8.758;2022-07-18T13:11:23;0.40;;;0.40;;
7156;SDS011;3620;49.862;8.758;2022-07-18T13:13:50;0.30;;;0.30;;
7156;SDS011;3620;49.862;8.758;2022-07-18T13:16:17;0.40;;;0.40;;
7156;SDS011;3620;49.862;8.758;2022-07-18T13:18:43;0.30;;;0.30;;
7156;SDS011;3620;49.862;8.758;2022-07-18T13:21:11;0.38;;;0.38;;
7156;SDS011;3620;49.862;8.758;2022-07-18T13:23:38;0.30;;;0.30;;
7156;SDS011;3620;49.862;8.758;2022-07-18T13:26:05;0.30;;;0.30;;
7156;SDS011;3620;49.862;8.758;2022-07-18T13:28:32;0.30;;;0.30;;
7156;SDS011;3620;49.862;8.758;2022-07-18T13:30:58;0.30;;;0.30;;
7156;SDS011;3620;49.862;8.758;2022-07-18T13:33:26;0.30;;;0.30;;
7156;SDS011;3620;49.862;8.758;2022-07-18T13:35:53;0.30;;;0.30;;
7156;SDS011;3620;49.862;8.758;2022-07-18T13:38:21;0.30;;;0.30;;
7156;SDS011;3620;49.862;8.758;2022-07-18T13:40:48;0.30;;;0.30;;
7156;SDS011;3620;49.862;8.758;2022-07-18T13:43:17;0.30;;;0.30;;
7156;SDS011;3620;49.862;8.758;2022-07-18T13:45:44;0.30;;;0.30;;
7156;SDS011;3620;49.862;8.758;2022-07-18T13:48:11;0.30;;;0.30;;
7156;SDS011;3620;49.862;8.758;2022-07-18T13:50:38;0.30;;;0.30;;
7156;SDS011;3620;49.862;8.758;2022-07-18T13:53:05;0.30;;;0.30;;
7156;SDS011;3620;49.862;8.758;2022-07-18T13:55:34;0.20;;;0.20;;
7156;SDS011;3620;49.862;8.758;2022-07-18T13:58:01;0.22;;;0.22;;
7156;SDS011;3620;49.862;8.758;2022-07-18T14:00:27;0.20;;;0.20;;
7156;SDS011;3620;49.862;8.758;2022-07-18T14:02:54;0.25;;;0.25;;
7156;SDS011;3620;49.862;8.758;2022-07-18T14:05:21;0.20;;;0.20;;
7156;SDS011;3620;49.862;8.758;2022-07-18T14:07:48;0.20;;;0.20;;
7156;SDS011;3620;49.862;8.758;2022-07-18T14:10:15;0.20;;;0.20;;
7156;SDS011;3620;49.862;8.758;2022-07-18T14:12:43;0.20;;;0.20;;
7156;SDS011;3620;49.862;8.758;2022-07-18T14:15:10;0.30;;;0.30;;
7156;SDS011;3620;49.862;8.758;2022-07-18T14:17:38;0.20;;;0.20;;
7156;SDS011;3620;49.862;8.758;2022-07-18T14:20:06;0.20;;;0.20;;
7156;SDS011;3620;49.862;8.758;2022-07-18T14:22:34;0.20;;;0.20;;
7156;SDS011;3620;49.862;8.758;2022-07-18T14:25:01;0.20;;;0.20;;
7156;SDS011;3620;49.862;8.758;2022-07-18T14:27:28;0.20;;;0.20;;
7156;SDS011;3620;49.862;8.758;2022-07-18T14:29:56;0.20;;;0.20;;
7156;SDS011;3620;49.862;8.758;2022-07-18T14:32:24;0.25;;;0.25;;
7156;SDS011;3620;49.862;8.758;2022-07-18T14:34:51;0.30;;;0.30;;
7156;SDS011;3620;49.862;8.758;2022-07-18T14:37:17;0.20;;;0.20;;
7156;SDS011;3620;49.862;8.758;2022-07-18T14:39:44;0.20;;;0.20;;
7156;SDS011;3620;49.862;8.758;2022-07-18T14:42:11;0.20;;;0.20;;
7156;SDS011;3620;49.862;8.758;2022-07-18T14:44:38;0.20;;;0.20;;
7156;SDS011;3620;49.862;8.758;2022-07-18T14:47:06;0.20;;;0.20;;
7156;SDS011;3620;49.862;8.758;2022-07-18T14:49:33;0.20;;;0.20;;
7156;SDS011;3620;49.862;8.758;2022-07-18T14:52:00;0.20;;;0.20;;
7156;SDS011;3620;49.862;8.758;2022-07-18T14:54:27;0.20;;;0.20;;
7156;SDS011;3620;49.862;8.758;2022-07-18T14:56:54;0.20;;;0.20;;
7156;SDS011;3620;49.862;8.758;2022-07-18T14:59:22;0.20;;;0.20;;
7156;SDS011;3620;49.862;8.758;2022-07-18T15:01:48;0.20;;;0.20;;
7156;SDS011;3620;49.862;8.758;2022-07-18T15:04:17;0.20;;;0.20;;
7156;SDS011;3620;49.862;8.758;2022-07-18T15:06:44;0.20;;;0.20;;
7156;SDS011;3620;49.862;8.758;2022-07-18T15:09:11;0.20;;;0.20;;
7156;SDS011;3620;49.862;8.758;2022-07-18T15:11:38;0.20;;;0.20;;
7156;SDS011;3620;49.862;8.758;2022-07-18T15:14:05;0.20;;;0.20;;
7156;SDS011;3620;49.862;8.758;2022-07-18T15:16:32;0.20;;;0.20;;
7156;SDS011;3620;49.862;8.758;2022-07-18T15:18:59;0.20;;;0.20;;
7156;SDS011;3620;49.862;8.758;2022-07-18T15:21:27;0.20;;;0.20;;
7156;SDS011;3620;49.862;8.758;2022-07-18T15:23:53;0.20;;;0.20;;
7156;SDS011;3620;49.862;8.758;2022-07-18T15:26:20;0.20;;;0.20;;
7156;SDS011;3620;49.862;8.758;2022-07-18T15:28:47;0.20;;;0.20;;
7156;SDS011;3620;49.862;8.758;2022-07-18T15:31:14;0.20;;;0.20;;
7156;SDS011;3620;49.862;8.758;2022-07-18T15:33:41;0.20;;;0.20;;
7156;SDS011;3620;49.862;8.758;2022-07-18T15:36:07;0.30;;;0.30;;
7156;SDS011;3620;49.862;8.758;2022-07-18T15:38:35;0.20;;;0.20;;
7156;SDS011;3620;49.862;8.758;2022-07-18T15:41:05;0.30;;;0.30;;